Latest Coastal Weather Observations for Edithburgh

IDS60701

Issued at 11:02 pm CDT Sunday 1 March 2015 (issued every 10 minutes, with the page automatically refreshed every 10 minutes)

About coastal observations | Map of coastal stations | Coastal observations for SA | Marine services | Other Formats
Station Details ID: 022046 Name: EDITHBURGH Lat: -35.11 Lon: 137.74 Height: 6.0 m
Data from the previous 72 hours. | See also: Recent months at Edithburgh
Date/Time
CDT
Temp

°C
Wind Pressure Rain
since 9am
mm
Weather Cloud Vis
km
Sea
Height
m
Swell
Dir
 
Speed
knots
Gust
knots
hPa Trend Height
m
Period
s
Dir
01/11:00pm 17.0 SE 14 19 1017.2 - 0.0 - - - - - - -
01/10:30pm 17.1 SE 16 22 1017.2 - 0.0 - - - - - - -
01/10:00pm 17.0 SE 16 20 1017.2 - 0.0 - - - - - - -
01/09:30pm 17.1 SSE 17 22 1017.4 - 0.0 - - - - - - -
01/09:00pm 17.2 SSE 15 19 1017.4 - 0.0 - - - - - - -
01/08:30pm 17.5 SSE 14 19 1017.5 - 0.0 - - - - - - -
01/08:00pm 17.7 SSE 14 17 1017.2 - 0.0 - - - - - - -
01/07:30pm 18.1 SSE 12 16 1017.2 - 0.0 - - - - - - -
01/07:00pm 18.8 SSE 13 16 1016.8 - 0.0 - - - - - - -
01/06:30pm 19.2 SE 14 17 1016.4 - 0.0 - - - - - - -
01/06:00pm 19.8 SSE 15 19 1016.2 - 0.0 - - - - - - -
01/05:30pm 20.1 SE 14 18 1016.3 - 0.0 - - - - - - -
01/05:00pm 20.8 SSE 13 17 1016.7 - 0.0 - - - - - - -
01/04:30pm 20.6 SSE 13 15 1016.6 - 0.0 - - - - - - -
01/04:00pm 21.1 SSE 14 18 1016.8 - 0.0 - - - - - - -
01/03:30pm 20.9 SSE 14 18 1017.0 - 0.0 - - - - - - -
01/03:00pm 21.2 SSE 14 18 1017.2 - 0.0 - - - - - - -
01/02:30pm 21.3 SSE 13 18 1017.3 - 0.0 - - - - - - -
01/02:00pm 20.8 SSE 13 17 1017.3 - 0.0 - - - - - - -
01/01:30pm 21.3 SSE 11 16 1017.6 - 0.0 - - - - - - -
01/01:00pm 21.1 SSE 13 16 1017.8 - 0.0 - - - - - - -
01/12:30pm 21.2 SSE 13 16 1017.9 - 0.0 - - - - - - -
01/12:00pm 20.0 SSE 11 17 1018.0 - 0.0 - - - - - - -
01/11:30am 20.7 SSE 12 16 1018.1 - 0.0 - - - - - - -
01/11:00am 19.3 S 13 17 1018.0 - 0.0 - - - - - - -
01/10:30am 20.1 SSE 13 17 1017.7 - 0.0 - - - - - - -
01/10:00am 19.9 SSE 13 17 1017.3 - 0.0 - - - - - - -
01/09:30am 19.3 S 14 18 1016.9 - 0.0 - - - - - - -
01/09:00am 17.7 SSE 15 21 1016.7 - 0.0 - - - - - - -
01/08:30am 16.5 S 11 15 1016.4 - 0.0 - - - - - - -
01/08:00am 17.2 SSW 11 16 1015.9 - 0.0 - - - - - - -
01/07:30am 16.9 S 12 16 1015.4 - 0.0 - - - - - - -
01/07:00am 16.6 SSW 14 19 1014.9 - 0.0 - - - - - - -
01/06:30am 17.0 S 13 17 1014.4 - 0.0 - - - - - - -
01/06:00am 16.4 SSW 14 20 1014.1 - 0.0 - - - - - - -
01/05:30am 17.1 SSW 15 22 1013.7 - 0.0 - - - - - - -
01/05:00am 17.0 SSW 13 17 1013.5 - 0.0 - - - - - - -
01/04:30am 16.8 SSW 13 17 1013.3 - 0.0 - - - - - - -
01/04:00am 16.7 SSW 13 17 1013.3 - 0.0 - - - - - - -
01/03:30am 16.9 SSW 15 20 1013.2 - 0.0 - - - - - - -
01/03:00am 17.1 SSW 13 21 1013.1 - 0.0 - - - - - - -
01/02:30am 16.9 SW 15 21 1013.0 - 0.0 - - - - - - -
01/02:00am 17.3 SSW 15 21 1013.0 - 0.0 - - - - - - -
01/01:30am 17.2 SSW 15 20 1012.9 - 0.0 - - - - - - -
01/01:00am 17.5 SSW 16 21 1013.0 - 0.0 - - - - - - -
01/12:30am 17.6 SSW 13 18 1012.9 - 0.0 - - - - - - -
01/12:00am 17.7 SSW 12 17 1012.9 - 0.0 - - - - - - -
 
Date/Time
CDT
Temp

°C
Wind Pressure Rain
since 9am
mm
Weather Cloud Vis
km
Sea
Height
m
Swell
Dir
 
Speed
knots
Gust
knots
hPa Trend Height
m
Period
s
Dir
28/11:30pm 17.8 SSW 14 20 1012.9 - 0.0 - - - - - - -
28/11:00pm 18.2 SSW 16 20 1012.7 - 0.0 - - - - - - -
28/10:30pm 18.4 SSW 14 20 1012.4 - 0.0 - - - - - - -
28/10:00pm 18.6 SSW 15 18 1012.2 - 0.0 - - - - - - -
28/09:30pm 18.6 SSW 16 21 1011.8 - 0.0 - - - - - - -
28/09:00pm 18.9 SSW 15 21 1011.3 - 0.0 - - - - - - -
28/08:30pm 19.0 SSW 16 21 1010.6 - 0.0 - - - - - - -
28/08:00pm 19.5 SSW 16 20 1009.8 - 0.0 - - - - - - -
28/07:30pm 20.3 SSW 15 19 1009.2 - 0.0 - - - - - - -
28/07:00pm 20.7 SSW 17 21 1008.8 - 0.0 - - - - - - -
28/06:30pm 20.8 SSW 17 22 1008.5 - 0.0 - - - - - - -
28/06:00pm 21.1 SSW 17 21 1008.0 - 0.0 - - - - - - -
28/05:30pm 20.7 SSW 14 19 1007.4 - 0.0 - - - - - - -
28/05:00pm 21.8 SSW 17 23 1006.8 - 0.0 - - - - - - -
28/04:30pm 23.3 SSW 19 24 1006.7 - 0.0 - - - - - - -
28/04:00pm 23.5 SSW 16 22 1005.7 - 0.0 - - - - - - -
28/03:30pm 24.9 S 8 12 1005.6 - 0.0 - - - - - - -
28/03:00pm 24.9 S 7 10 1005.4 - 0.0 - - - - - - -
28/02:30pm 25.6 SSW 11 14 1005.2 - 0.0 - - - - - - -
28/02:00pm 28.0 SW 10 14 1004.9 - 0.0 - - - - - - -
28/01:30pm 27.9 SW 12 15 1004.4 - 0.0 - - - - - - -
28/01:00pm 26.9 SW 12 17 1004.3 - 0.0 - - - - - - -
28/12:30pm 28.4 WSW 13 17 1004.5 - 0.0 - - - - - - -
28/12:00pm 30.1 WSW 9 17 1004.3 - 0.0 - - - - - - -
28/11:30am 28.8 SW 10 15 1004.4 - 0.0 - - - - - - -
28/11:00am 30.5 WNW 13 17 1004.0 - 0.0 - - - - - - -
28/10:30am 30.3 WNW 14 18 1003.7 - 0.0 - - - - - - -
28/10:00am 28.5 NW 9 12 1003.8 - 0.0 - - - - - - -
28/09:30am 27.6 NW 10 13 1003.8 - 0.0 - - - - - - -
28/09:00am 26.8 NW 6 7 1003.8 - 0.0 - - - - - - -
28/08:30am 24.9 NNW 7 10 1003.6 - 0.0 - - - - - - -
28/08:00am 21.8 NNW 5 7 1003.6 - 0.0 - - - - - - -
28/07:30am 19.4 NW 6 7 1003.3 - 0.0 - - - - - - -
28/07:00am 22.1 NNE 4 5 1002.7 - 0.0 - - - - - - -
28/06:30am 22.7 NNE 6 9 1002.8 - 0.0 - - - - - - -
28/06:00am 22.9 NNE 7 11 1002.8 - 0.0 - - - - - - -
28/05:30am 22.5 NNE 5 7 1002.7 - 0.0 - - - - - - -
28/05:00am 22.7 NNE 5 7 1002.6 - 0.0 - - - - - - -
28/04:30am 22.1 NNE 4 5 1002.6 - 0.0 - - - - - - -
28/04:00am 21.5 NE 4 6 1002.7 - 0.0 - - - - - - -
28/03:30am 21.9 NE 3 6 1003.0 - 0.0 - - - - - - -
28/03:00am 22.4 NE 7 9 1003.4 - 0.0 - - - - - - -
28/02:30am 22.6 ENE 8 11 1003.7 - 0.0 - - - - - - -
28/02:00am 22.6 ENE 9 11 1004.5 - 0.0 - - - - - - -
28/01:30am 22.4 E 10 14 1004.8 - 0.0 - - - - - - -
28/01:00am 22.6 E 10 12 1005.4 - 0.0 - - - - - - -
28/12:30am 22.4 E 10 13 1005.9 - 0.0 - - - - - - -
28/12:00am 22.4 ENE 7 10 1007.4 - 0.0 - - - - - - -
 
Date/Time
CDT
Temp

°C
Wind Pressure Rain
since 9am
mm
Weather Cloud Vis
km
Sea
Height
m
Swell
Dir
 
Speed
knots
Gust
knots
hPa Trend Height
m
Period
s
Dir
27/11:30pm 22.5 E 6 8 1007.7 - 0.0 - - - - - - -
27/11:00pm 22.7 E 7 10 1007.9 - 0.0 - - - - - - -
27/10:30pm 22.6 ESE 7 9 1007.8 - 0.0 - - - - - - -
27/10:00pm 22.1 SE 8 12 1007.8 - 0.0 - - - - - - -
27/09:30pm 22.7 SE 7 10 1008.1 - 0.0 - - - - - - -
27/09:00pm 23.4 ESE 10 13 1007.5 - 0.0 - - - - - - -
27/08:30pm 23.6 SE 10 14 1007.1 - 0.0 - - - - - - -
27/08:00pm 23.1 SSE 8 11 1007.3 - 0.0 - - - - - - -
27/07:30pm 23.4 S 9 15 1006.7 - 0.0 - - - - - - -
27/07:00pm 24.1 SSE 9 11 1006.0 - 0.0 - - - - - - -
27/06:30pm 23.0 SSE 10 15 1006.2 - 0.0 - - - - - - -
27/06:00pm 23.1 S 9 11 1006.0 - 0.0 - - - - - - -
27/05:30pm 23.6 SE 7 9 1005.7 - 0.0 - - - - - - -
27/05:00pm 24.1 SE 6 8 1006.0 - 0.0 - - - - - - -
27/04:30pm 23.6 SSE 7 8 1006.2 - 0.0 - - - - - - -
27/04:00pm 23.8 SSE 7 9 1006.3 - 0.0 - - - - - - -
27/03:30pm 24.6 SE 5 7 1006.6 - 0.0 - - - - - - -
27/03:00pm 24.7 SE 4 6 1006.9 - 0.0 - - - - - - -
27/02:30pm 25.3 E 6 8 1007.1 - 0.0 - - - - - - -
27/02:00pm 25.3 ENE 7 9 1007.2 - 0.0 - - - - - - -
27/01:30pm 24.7 ENE 7 10 1007.8 - 0.0 - - - - - - -
27/01:00pm 25.1 ENE 9 11 1008.0 - 0.0 - - - - - - -
27/12:30pm 24.4 NE 9 12 1008.3 - 0.0 - - - - - - -
27/12:00pm 24.7 NE 7 10 1008.9 - 0.0 - - - - - - -
27/11:30am 24.2 NE 7 10 1009.4 - 0.0 - - - - - - -
27/11:00am 23.9 NE 8 11 1009.7 - 0.0 - - - - - - -
27/10:30am 24.1 NE 8 11 1009.7 - 0.0 - - - - - - -
27/10:00am 23.2 NE 9 12 1009.7 - 0.0 - - - - - - -
27/09:30am 23.2 NE 7 11 1010.0 - 0.0 - - - - - - -
27/09:00am 24.0 NE 7 10 1009.8 - 0.0 - - - - - - -
27/08:30am 23.5 NE 7 10 1009.6 - 0.0 - - - - - - -
27/08:00am 22.3 ENE 7 9 1009.5 - 0.0 - - - - - - -
27/07:30am 20.2 E 5 6 1009.1 - 0.0 - - - - - - -
27/07:00am 19.2 E 5 6 1009.0 - 0.0 - - - - - - -
27/06:30am 18.9 ESE 5 7 1008.8 - 0.0 - - - - - - -
27/06:00am 19.1 E 3 4 1009.1 - 0.0 - - - - - - -
27/05:30am 19.2 ENE 4 5 1008.8 - 0.0 - - - - - - -
27/05:00am 19.5 E 4 5 1008.7 - 0.0 - - - - - - -
27/04:30am 20.1 ESE 5 6 1008.7 - 0.0 - - - - - - -
27/04:00am 19.9 SE 5 7 1009.1 - 0.0 - - - - - - -
27/03:30am 19.7 ESE 5 7 1009.2 - 0.0 - - - - - - -
27/03:00am 20.3 SE 7 9 1009.4 - 0.0 - - - - - - -
27/02:30am 20.3 SE 7 9 1009.8 - 0.0 - - - - - - -
27/02:00am 20.2 SSE 6 8 1010.3 - 0.0 - - - - - - -
27/01:30am 20.6 SSE 6 8 1010.7 - 0.0 - - - - - - -
27/01:00am 20.3 S 6 8 1010.6 - 0.0 - - - - - - -
27/12:30am 20.2 S 8 9 1010.9 - 0.0 - - - - - - -
27/12:00am 20.4 S 9 11 1011.2 - 0.0 - - - - - - -
 
Date/Time
CDT
Temp

°C
Wind Pressure Rain
since 9am
mm
Weather Cloud Vis
km
Sea
Height
m
Swell
Dir
 
Speed
knots
Gust
knots
hPa Trend Height
m
Period
s
Dir
26/11:30pm 20.1 S 7 9 1011.3 - 0.0 - - - - - - -

Other Formats:

Comma delimited format used in spreadsheet applications
http://www.bom.gov.au/fwo/IDS60701/IDS60701.94809.axf

JavaScript Object Notation format (JSON) in row-major order
http://www.bom.gov.au/fwo/IDS60701/IDS60701.94809.json